SBGO/GYN METAR and TAF weather

Enter ICAO airport designator
Station Type Date Time Source
SBGO METAR 2020/09/20 08:00 UTC NOAA

SBGO 200800Z 35004KT CAVOK 21/16 Q1015


Station Type Date Time Source
SBGO Decoded METAR 2020/09/20 08:00 UTC NOAA

Goiania Aeroporto , Brazil (SBGO) 16-38S 049-13W
Sep 20, 2020 - 04:00 AM EDT / 2020.09.20 0800 UTC
Wind: from the N (350 degrees) at 5 MPH (4 KT):0
Visibility: greater than 7 mile(s):0
Temperature: 69 F (21 C)
Dew Point: 60 F (16 C)
Relative Humidity: 73%
Pressure (altimeter): 29.97 in. Hg (1015 hPa)
ob: SBGO 200800Z 35004KT CAVOK 21/16 Q1015
cycle: 8

Station Type Date Time Source
SBGO TAF 2020/09/20 06:54 UTC NOAA

TAF TAF SBGO 200034Z 2006/2106 16002KT 8000 NSC TN22/2009Z TX36/2017Z
BECMG 2009/2011 18003KT
BECMG 2012/2014 14008KT
BECMG 2015/2017 09006KT
BECMG 2018/2020 00000KT
BECMG 2021/2023 21002KT
BECMG 2100/2102 00000KT
BECMG 2103/2105 23002KT
RMK PHG

Example: see airport list